Aviation Digital Data Service (ADDS)

Output produced by METARs form (1218 UTC 25 June 2019)
found at http://www.aviationweather.gov/metar/data/
 
OSLK 251200Z 27006KT CAVOK 32/19 Q1009
OSDI 251200Z 22005KT CAVOK 42/01 Q1010
OSKL 251200Z 28010KT CAVOK 43/01 Q1007